Time;durP1;ratioP1;P1;durP2;ratioP2;P2;SDS_P1;SDS_P2;PMS_P1;PMS_P2;Temp;Humidity;BMP_temperature;BMP_pressure;BME280_temperature;BME280_humidity;BME280_pressure;Samples;Min_cycle;Max_cycle;Signal;HPM_P1;HPM_P2
2021/11/20 00:02:22;;;;;;;29.17;16.38;;;9.60;99.90;;;;;;5020971;28;20050;-66
2021/11/20 00:04:49;;;;;;;36.78;18.00;;;9.60;99.90;;;;;;5011202;28;20482;-66
2021/11/20 00:07:15;;;;;;;37.92;18.02;;;9.60;99.90;;;;;;5002034;28;20037;-65
2021/11/20 00:09:41;;;;;;;37.30;18.17;;;9.50;99.90;;;;;;5025050;28;20115;-65
2021/11/20 00:12:19;;;;;;;37.00;17.77;;;9.50;99.90;;;;;;5020190;28;20434;-66
2021/11/20 00:14:45;;;;;;;42.88;18.83;;;9.60;99.90;;;;;;5006039;28;20065;-66
2021/11/20 00:17:11;;;;;;;38.75;18.85;;;9.50;99.90;;;;;;5026377;28;20045;-66
2021/11/20 00:19:37;;;;;;;43.70;20.73;;;9.60;99.90;;;;;;5005142;28;20049;-66
2021/11/20 00:22:22;;;;;;;44.30;20.30;;;9.70;99.90;;;;;;5026044;28;20041;-66
2021/11/20 00:24:51;;;;;;;46.95;19.88;;;9.70;99.90;;;;;;5022326;28;20034;-65
2021/11/20 00:27:22;;;;;;;37.55;19.42;;;9.80;99.90;;;;;;5025579;28;20125;-65
2021/11/20 00:30:02;;;;;;;32.88;19.15;;;9.70;99.90;;;;;;5020630;28;20056;-65
2021/11/20 00:32:32;;;;;;;37.47;18.98;;;9.80;99.90;;;;;;5006357;28;20048;-65
2021/11/20 00:35:02;;;;;;;41.45;20.08;;;9.80;99.90;;;;;;5001843;28;20030;-65
2021/11/20 00:37:27;;;;;;;38.83;19.85;;;9.90;99.90;;;;;;5007986;28;20038;-65
2021/11/20 00:39:53;;;;;;;34.38;20.92;;;9.90;99.90;;;;;;5023222;28;20082;-65
2021/11/20 00:42:20;;;;;;;32.17;20.20;;;10.00;99.90;;;;;;5029458;28;20481;-66
2021/11/20 00:44:47;;;;;;;33.10;19.83;;;10.00;99.90;;;;;;5024169;28;20505;-65
2021/11/20 00:47:12;;;;;;;32.92;19.50;;;10.00;99.90;;;;;;5011063;28;20541;-65
2021/11/20 00:49:38;;;;;;;39.30;21.02;;;10.00;99.90;;;;;;5022104;28;20113;-65
2021/11/20 00:52:05;;;;;;;36.13;19.70;;;10.00;99.90;;;;;;5031464;28;20128;-66
2021/11/20 00:54:32;;;;;;;39.72;21.40;;;10.10;99.90;;;;;;5024931;28;20091;-66
2021/11/20 00:56:57;;;;;;;34.97;20.58;;;10.10;99.90;;;;;;5026914;28;20056;-66
2021/11/20 00:59:24;;;;;;;36.38;19.85;;;10.10;99.90;;;;;;5022239;28;20037;-66
2021/11/20 01:01:57;;;;;;;34.83;20.30;;;10.10;99.90;;;;;;5012092;28;20036;-65
2021/11/20 01:04:24;;;;;;;33.42;19.25;;;10.10;99.90;;;;;;5021677;28;20474;-66
2021/11/20 01:06:51;;;;;;;37.78;20.83;;;10.10;99.90;;;;;;5027460;28;20120;-66
2021/11/20 01:09:22;;;;;;;40.63;20.52;;;10.20;99.90;;;;;;5026719;28;20046;-66
2021/11/20 01:11:52;;;;;;;36.22;19.90;;;10.20;99.90;;;;;;5028810;28;20048;-65
2021/11/20 01:14:20;;;;;;;31.70;20.77;;;10.20;99.90;;;;;;5026557;28;20037;-65
2021/11/20 01:16:49;;;;;;;30.45;19.92;;;10.20;99.90;;;;;;5019234;28;20034;-66
2021/11/20 01:19:16;;;;;;;32.10;19.35;;;10.20;99.90;;;;;;5028327;28;20044;-65
2021/11/20 01:21:42;;;;;;;32.63;20.75;;;10.20;99.90;;;;;;5024252;28;20041;-65
2021/11/20 01:24:09;;;;;;;34.97;21.30;;;10.20;99.90;;;;;;5027115;28;20045;-65
2021/11/20 01:26:37;;;;;;;33.47;19.83;;;10.20;99.90;;;;;;5020537;28;20045;-65
2021/11/20 01:29:04;;;;;;;34.83;20.02;;;10.20;99.90;;;;;;5030119;28;20112;-66
2021/11/20 01:31:32;;;;;;;29.05;18.38;;;10.20;99.90;;;;;;5020493;28;20041;-66
2021/11/20 01:33:58;;;;;;;38.15;20.23;;;10.20;99.90;;;;;;5026217;28;20396;-66
2021/11/20 01:36:28;;;;;;;34.95;20.15;;;10.20;99.90;;;;;;5024145;28;20117;-66
2021/11/20 01:38:56;;;;;;;28.83;18.40;;;10.20;99.90;;;;;;5010957;28;20044;-66
2021/11/20 01:41:25;;;;;;;29.90;18.58;;;10.20;99.90;;;;;;5020094;28;20045;-66
2021/11/20 01:43:54;;;;;;;33.70;20.42;;;10.20;99.90;;;;;;5026771;28;20096;-66
2021/11/20 01:46:25;;;;;;;25.33;17.83;;;10.20;99.90;;;;;;5022571;28;20042;-66
2021/11/20 01:49:08;;;;;;;33.85;20.13;;;10.30;99.90;;;;;;5030420;28;20047;-66
2021/11/20 01:51:41;;;;;;;30.52;20.20;;;10.20;99.90;;;;;;5001266;28;20038;-66
2021/11/20 01:54:19;;;;;;;27.75;19.38;;;10.20;99.90;;;;;;5028105;28;20149;-66
2021/11/20 01:57:05;;;;;;;29.60;19.23;;;10.30;99.90;;;;;;5002192;28;20079;-66
2021/11/20 01:59:57;;;;;;;30.00;18.88;;;10.20;99.90;;;;;;5026804;28;20036;-65
2021/11/20 02:02:52;;;;;;;31.92;18.38;;;10.20;99.90;;;;;;5003460;28;20033;-66
2021/11/20 02:05:26;;;;;;;26.02;17.60;;;10.20;99.90;;;;;;5029117;28;20080;-66
2021/11/20 02:08:00;;;;;;;23.27;18.60;;;10.20;99.90;;;;;;5023000;28;20041;-66
2021/11/20 02:10:33;;;;;;;28.85;18.45;;;10.20;99.90;;;;;;5026945;28;20432;-66
2021/11/20 02:13:05;;;;;;;29.55;17.63;;;10.30;99.90;;;;;;5000159;28;20056;-65
2021/11/20 02:15:40;;;;;;;27.50;18.65;;;10.20;99.90;;;;;;5009763;28;20113;-66
2021/11/20 02:18:08;;;;;;;25.85;17.00;;;10.20;99.90;;;;;;5022635;28;20041;-66
2021/11/20 02:20:42;;;;;;;24.27;17.05;;;10.20;99.90;;;;;;5023875;28;20033;-66
2021/11/20 02:23:08;;;;;;;29.13;17.35;;;10.20;99.90;;;;;;5022113;28;20033;-66
2021/11/20 02:25:33;;;;;;;25.65;16.77;;;10.20;99.90;;;;;;5010506;28;20375;-66
2021/11/20 02:28:00;;;;;;;26.65;17.08;;;10.20;99.90;;;;;;5017794;28;20121;-66
2021/11/20 02:30:40;;;;;;;27.50;18.10;;;10.20;99.90;;;;;;5024012;28;20442;-66
2021/11/20 02:33:09;;;;;;;23.05;16.75;;;10.20;99.90;;;;;;4979968;28;20505;-66
2021/11/20 02:35:42;;;;;;;24.52;16.42;;;10.20;99.90;;;;;;5030271;28;20234;-66
2021/11/20 02:38:15;;;;;;;21.50;16.63;;;10.20;99.90;;;;;;5002839;28;20045;-66
2021/11/20 02:40:42;;;;;;;26.33;16.58;;;10.20;99.90;;;;;;5024981;28;20044;-66
2021/11/20 02:43:08;;;;;;;21.23;16.95;;;10.20;99.90;;;;;;5021775;28;20103;-66
2021/11/20 02:45:41;;;;;;;23.38;16.38;;;10.20;99.90;;;;;;5004651;28;20521;-67
2021/11/20 02:48:07;;;;;;;23.20;16.30;;;10.20;99.90;;;;;;5022467;28;20397;-67
2021/11/20 02:50:33;;;;;;;30.30;18.35;;;10.20;99.90;;;;;;5023588;28;20037;-67
2021/11/20 02:52:59;;;;;;;23.83;15.88;;;10.20;99.90;;;;;;5026867;28;20137;-67
2021/11/20 02:55:25;;;;;;;24.40;15.75;;;10.20;99.90;;;;;;5018978;28;20037;-67
2021/11/20 02:57:51;;;;;;;25.80;17.05;;;10.20;99.90;;;;;;5021594;28;20526;-67
2021/11/20 03:00:19;;;;;;;23.67;16.50;;;10.20;99.90;;;;;;5021847;28;20076;-67
2021/11/20 03:02:45;;;;;;;25.42;14.75;;;10.20;99.90;;;;;;5028772;28;20112;-67
2021/11/20 03:05:12;;;;;;;26.20;15.82;;;10.20;99.90;;;;;;5020143;28;20508;-67
2021/11/20 03:07:38;;;;;;;21.63;15.18;;;10.20;99.90;;;;;;5022857;28;20064;-67
2021/11/20 03:10:05;;;;;;;25.77;16.73;;;10.20;99.90;;;;;;5005107;28;20041;-67
2021/11/20 03:12:31;;;;;;;24.55;14.57;;;10.20;99.90;;;;;;5028521;28;20041;-67
2021/11/20 03:14:58;;;;;;;22.45;15.18;;;10.20;99.90;;;;;;5003737;28;20383;-67
2021/11/20 03:17:24;;;;;;;24.00;15.35;;;10.20;99.90;;;;;;5024676;28;20037;-67
2021/11/20 03:19:50;;;;;;;19.92;14.35;;;10.20;99.90;;;;;;5020628;28;20030;-67
2021/11/20 03:22:27;;;;;;;24.67;15.82;;;10.20;99.90;;;;;;5023561;28;20352;-67
2021/11/20 03:24:53;;;;;;;19.33;15.00;;;10.20;99.90;;;;;;5004990;28;20465;-67
2021/11/20 03:27:20;;;;;;;23.30;15.10;;;10.20;99.90;;;;;;5025852;28;20124;-67
2021/11/20 03:29:45;;;;;;;21.40;14.85;;;10.20;99.90;;;;;;5024583;28;20501;-67
2021/11/20 03:32:12;;;;;;;20.40;15.07;;;10.20;99.90;;;;;;5023295;28;20044;-67
2021/11/20 03:34:39;;;;;;;24.38;16.50;;;10.20;99.90;;;;;;5024510;28;20072;-67
2021/11/20 03:37:06;;;;;;;22.02;15.05;;;10.20;99.90;;;;;;5021192;28;20068;-67
2021/11/20 03:39:31;;;;;;;20.90;15.52;;;10.20;99.90;;;;;;5028259;28;20470;-67
2021/11/20 03:41:57;;;;;;;24.05;15.20;;;10.20;99.90;;;;;;5016629;28;20114;-67
2021/11/20 03:44:23;;;;;;;23.92;15.30;;;10.20;99.90;;;;;;5025409;28;20061;-67
2021/11/20 03:46:50;;;;;;;21.75;15.95;;;10.20;99.90;;;;;;5002420;28;20064;-67
2021/11/20 03:49:16;;;;;;;23.38;16.92;;;10.20;99.90;;;;;;5027485;28;20037;-67
2021/11/20 03:51:42;;;;;;;26.95;16.48;;;10.20;99.90;;;;;;5020499;28;20095;-67
2021/11/20 03:54:08;;;;;;;25.92;16.75;;;10.20;99.90;;;;;;5009782;28;20490;-67
2021/11/20 03:56:35;;;;;;;26.70;16.48;;;10.20;99.90;;;;;;5020681;28;20029;-67
2021/11/20 03:59:00;;;;;;;21.02;16.95;;;10.20;99.90;;;;;;5022465;28;20462;-67
2021/11/20 04:01:28;;;;;;;24.23;17.85;;;10.10;99.90;;;;;;5019622;28;20258;-67
2021/11/20 04:03:54;;;;;;;24.50;16.90;;;10.20;99.90;;;;;;5027941;28;20037;-67
2021/11/20 04:06:19;;;;;;;24.73;17.60;;;10.10;99.90;;;;;;5005732;28;20041;-67
2021/11/20 04:08:51;;;;;;;21.63;16.45;;;10.10;99.90;;;;;;5029218;28;20030;-67
2021/11/20 04:11:23;;;;;;;29.33;17.67;;;10.10;99.90;;;;;;5008037;28;20379;-67
2021/11/20 04:13:50;;;;;;;24.40;17.65;;;10.10;99.90;;;;;;5014533;28;20124;-67
2021/11/20 04:16:16;;;;;;;23.88;17.40;;;10.10;99.90;;;;;;5012456;28;20065;-67
2021/11/20 04:18:44;;;;;;;24.92;17.58;;;10.10;99.90;;;;;;5024072;28;20033;-67
2021/11/20 04:21:11;;;;;;;25.33;18.27;;;10.10;99.90;;;;;;5031421;28;20041;-67
2021/11/20 04:23:37;;;;;;;22.25;17.45;;;10.10;99.90;;;;;;5023097;28;20404;-67
2021/11/20 04:26:04;;;;;;;26.13;18.45;;;10.10;99.90;;;;;;5028493;28;20046;-67
2021/11/20 04:28:31;;;;;;;22.10;16.98;;;10.10;99.90;;;;;;5023840;28;20095;-67
2021/11/20 04:30:56;;;;;;;23.88;18.17;;;10.10;99.90;;;;;;5027781;28;20038;-67
2021/11/20 04:33:22;;;;;;;25.20;17.02;;;10.10;99.90;;;;;;5024123;28;20120;-67
2021/11/20 04:35:48;;;;;;;21.60;17.42;;;10.10;99.90;;;;;;5026854;28;20035;-67
2021/11/20 04:38:14;;;;;;;23.80;17.50;;;10.00;99.90;;;;;;5003901;28;20317;-67
2021/11/20 04:40:41;;;;;;;20.67;17.15;;;10.10;99.90;;;;;;5027491;28;20398;-67
2021/11/20 04:43:07;;;;;;;23.48;19.23;;;10.10;99.90;;;;;;5025549;28;20412;-67
2021/11/20 04:45:35;;;;;;;22.27;17.13;;;10.10;99.90;;;;;;5029985;28;20042;-67
2021/11/20 04:48:03;;;;;;;28.48;18.05;;;10.10;99.90;;;;;;5002194;28;20075;-67
2021/11/20 04:50:29;;;;;;;24.92;17.60;;;10.10;99.90;;;;;;5030357;28;20052;-67
2021/11/20 04:52:56;;;;;;;22.35;17.95;;;10.10;99.90;;;;;;5022893;28;20092;-67
2021/11/20 04:55:22;;;;;;;24.95;17.70;;;10.10;99.90;;;;;;5027035;28;20037;-67
2021/11/20 04:57:48;;;;;;;19.80;17.23;;;10.10;99.90;;;;;;5028254;28;20042;-67
2021/11/20 05:00:21;;;;;;;27.83;18.60;;;10.10;99.90;;;;;;5005698;28;20052;-67
2021/11/20 05:02:47;;;;;;;24.70;17.98;;;10.10;99.90;;;;;;5012734;28;20041;-67
2021/11/20 05:05:13;;;;;;;25.05;18.63;;;10.10;99.90;;;;;;5006318;28;20053;-67
2021/11/20 05:07:39;;;;;;;25.15;18.63;;;10.10;99.90;;;;;;5011108;28;20057;-67
2021/11/20 05:10:06;;;;;;;23.52;18.70;;;10.10;99.90;;;;;;5024443;28;20037;-67
2021/11/20 05:12:32;;;;;;;25.45;18.85;;;10.10;99.90;;;;;;5005297;28;20121;-67
2021/11/20 05:14:58;;;;;;;27.77;19.17;;;10.10;99.90;;;;;;5023323;28;20229;-67
2021/11/20 05:17:24;;;;;;;27.42;19.67;;;10.10;99.90;;;;;;5009700;28;20115;-67
2021/11/20 05:19:50;;;;;;;30.63;19.52;;;10.10;99.90;;;;;;5023959;28;20068;-67
2021/11/20 05:22:16;;;;;;;24.45;20.50;;;10.10;99.90;;;;;;5026271;28;20042;-67
2021/11/20 05:24:41;;;;;;;27.95;20.17;;;10.10;99.90;;;;;;5005380;28;20037;-67
2021/11/20 05:27:08;;;;;;;23.63;20.08;;;10.10;99.90;;;;;;5014034;28;20080;-67
2021/11/20 05:29:46;;;;;;;23.10;20.58;;;10.10;99.90;;;;;;5003494;28;20115;-67
2021/11/20 05:32:12;;;;;;;28.50;21.02;;;10.10;99.90;;;;;;5009641;28;20113;-67
2021/11/20 05:34:38;;;;;;;27.30;21.45;;;10.10;99.90;;;;;;5023984;28;20444;-67
2021/11/20 05:37:04;;;;;;;28.27;21.92;;;10.10;99.90;;;;;;5026355;28;20041;-67
2021/11/20 05:39:31;;;;;;;30.45;21.60;;;10.10;99.90;;;;;;5027192;28;20148;-67
2021/11/20 05:41:58;;;;;;;25.60;21.90;;;10.20;99.90;;;;;;5022299;28;20394;-67
2021/11/20 05:44:24;;;;;;;28.92;22.15;;;10.10;99.90;;;;;;5026120;28;20049;-67
2021/11/20 05:46:52;;;;;;;29.13;22.52;;;10.20;99.90;;;;;;4993687;28;20073;-67
2021/11/20 05:49:19;;;;;;;28.02;22.40;;;10.20;99.90;;;;;;5025236;28;20041;-67
2021/11/20 05:51:44;;;;;;;27.85;23.55;;;10.20;99.90;;;;;;5005851;28;20061;-67
2021/11/20 05:54:11;;;;;;;29.75;22.85;;;10.20;99.90;;;;;;5027111;28;20393;-67
2021/11/20 05:56:37;;;;;;;31.38;23.70;;;10.20;99.90;;;;;;5022434;28;20674;-67
2021/11/20 05:59:04;;;;;;;30.55;23.17;;;10.20;99.90;;;;;;5027029;28;20277;-67
2021/11/20 06:01:30;;;;;;;29.73;23.58;;;10.20;99.90;;;;;;5024305;28;20038;-67
2021/11/20 06:03:56;;;;;;;34.50;24.20;;;10.20;99.90;;;;;;5005876;28;20049;-67
2021/11/20 06:06:22;;;;;;;29.20;23.42;;;10.20;99.90;;;;;;4994712;28;20054;-64
2021/11/20 06:08:48;;;;;;;31.48;23.92;;;10.20;99.90;;;;;;5010587;28;20190;-64
2021/11/20 06:11:15;;;;;;;31.50;24.42;;;10.20;99.90;;;;;;5023098;28;20469;-66
2021/11/20 06:13:40;;;;;;;32.13;25.45;;;10.20;99.90;;;;;;5011373;28;20045;-66
2021/11/20 06:16:06;;;;;;;32.35;25.48;;;10.30;99.90;;;;;;5020405;28;20056;-66
2021/11/20 06:18:32;;;;;;;33.17;25.33;;;10.20;99.90;;;;;;5009737;28;20038;-66
2021/11/20 06:20:58;;;;;;;35.00;26.40;;;10.20;99.90;;;;;;5030171;28;20046;-66
2021/11/20 06:23:26;;;;;;;35.10;26.48;;;10.20;99.90;;;;;;5020680;28;20046;-66
2021/11/20 06:25:52;;;;;;;33.65;27.00;;;10.20;99.90;;;;;;5025845;28;20037;-66
2021/11/20 06:28:18;;;;;;;32.58;27.05;;;10.20;99.90;;;;;;5019963;28;20038;-66
2021/11/20 06:30:43;;;;;;;34.60;26.48;;;10.30;99.90;;;;;;5025209;28;20037;-66
2021/11/20 06:33:09;;;;;;;33.03;26.15;;;10.30;99.90;;;;;;5017422;28;20121;-66
2021/11/20 06:35:37;;;;;;;34.90;27.13;;;10.30;99.90;;;;;;5027831;28;20068;-66
2021/11/20 06:38:04;;;;;;;33.30;27.10;;;10.30;99.90;;;;;;5023146;28;20095;-66
2021/11/20 06:40:36;;;;;;;31.33;26.13;;;10.30;99.90;;;;;;5006678;28;20042;-66
2021/11/20 06:43:03;;;;;;;34.85;27.25;;;10.30;99.90;;;;;;5000006;28;20049;-66
2021/11/20 06:45:37;;;;;;;33.97;26.70;;;10.30;99.90;;;;;;5025703;28;20053;-65
2021/11/20 06:48:04;;;;;;;;;;;10.30;99.90;;;;;;5022308;28;20107;-66
2021/11/20 06:50:32;;;;;;;32.95;26.17;;;10.30;99.90;;;;;;5024971;28;19921;-66
2021/11/20 06:52:58;;;;;;;34.28;27.55;;;10.20;99.90;;;;;;5013302;28;20486;-66
2021/11/20 06:55:27;;;;;;;33.58;27.02;;;10.30;99.90;;;;;;5026383;28;20137;-66
2021/11/20 06:57:58;;;;;;;34.00;26.45;;;10.30;99.90;;;;;;5022375;28;20044;-66
2021/11/20 07:00:30;;;;;;;30.52;26.90;;;10.30;99.90;;;;;;5010099;28;20397;-66
2021/11/20 07:03:18;;;;;;;34.20;26.30;;;10.30;99.90;;;;;;5016163;28;20037;-66
2021/11/20 07:05:45;;;;;;;32.30;26.38;;;10.30;99.90;;;;;;5008725;28;20045;-66
2021/11/20 07:08:13;;;;;;;32.20;27.35;;;10.30;99.90;;;;;;5021397;28;20084;-66
2021/11/20 07:10:39;;;;;;;38.20;28.17;;;10.30;99.90;;;;;;5023946;28;20040;-66
2021/11/20 07:13:05;;;;;;;32.78;26.58;;;10.30;99.90;;;;;;5023626;28;20099;-66
2021/11/20 07:15:32;;;;;;;41.33;33.38;;;10.30;99.90;;;;;;5024100;28;20036;-66
2021/11/20 07:17:59;;;;;;;33.40;26.92;;;10.30;99.90;;;;;;5024512;28;20113;-66
2021/11/20 07:20:29;;;;;;;30.08;26.02;;;10.30;99.90;;;;;;5017833;28;20033;-66
2021/11/20 07:22:55;;;;;;;32.88;26.58;;;10.30;99.90;;;;;;5026165;28;20041;-66
2021/11/20 07:25:25;;;;;;;28.10;24.75;;;10.30;99.90;;;;;;5020367;28;20043;-66
2021/11/20 07:27:52;;;;;;;28.13;24.70;;;10.30;99.90;;;;;;5009754;28;20061;-66
2021/11/20 07:30:20;;;;;;;31.48;26.33;;;10.30;99.90;;;;;;5018177;28;20394;-66
2021/11/20 07:32:47;;;;;;;31.65;25.80;;;10.30;99.90;;;;;;5025752;28;20108;-66
2021/11/20 07:35:24;;;;;;;32.20;25.83;;;10.30;99.90;;;;;;5002024;28;20057;-67
2021/11/20 07:37:50;;;;;;;32.10;25.55;;;10.30;99.90;;;;;;5028052;28;20389;-67
2021/11/20 07:40:15;;;;;;;32.78;26.00;;;10.30;99.90;;;;;;5019183;28;20037;-67
2021/11/20 07:42:41;;;;;;;31.50;25.20;;;10.30;99.90;;;;;;5030773;28;20124;-67
2021/11/20 07:45:07;;;;;;;31.83;25.80;;;10.30;99.90;;;;;;5024525;28;20447;-67
2021/11/20 07:47:33;;;;;;;29.60;25.83;;;10.30;99.90;;;;;;5025987;28;20045;-67
2021/11/20 07:49:59;;;;;;;33.63;25.25;;;10.30;99.90;;;;;;5025507;28;20045;-67
2021/11/20 07:52:24;;;;;;;28.98;25.13;;;10.30;99.90;;;;;;5031385;28;20064;-67
2021/11/20 07:54:50;;;;;;;29.83;25.17;;;10.30;99.90;;;;;;5028606;28;20044;-67
2021/11/20 07:57:16;;;;;;;29.77;24.30;;;10.30;99.90;;;;;;5005863;28;20041;-67
2021/11/20 07:59:42;;;;;;;31.85;26.73;;;10.30;99.90;;;;;;5029903;28;20103;-67
2021/11/20 08:02:08;;;;;;;29.00;24.95;;;10.30;99.90;;;;;;5026707;28;20041;-67
2021/11/20 08:04:38;;;;;;;31.95;24.85;;;10.30;99.90;;;;;;5028725;28;20099;-67
2021/11/20 08:07:06;;;;;;;29.55;25.85;;;10.40;99.90;;;;;;5006067;28;20468;-65
2021/11/20 08:09:33;;;;;;;30.20;24.98;;;10.30;99.90;;;;;;5032655;28;20125;-65
2021/11/20 08:12:00;;;;;;;30.88;26.42;;;10.30;99.90;;;;;;5022051;28;20037;-64
2021/11/20 08:14:26;;;;;;;31.73;25.48;;;10.30;99.90;;;;;;5005824;28;20026;-66
2021/11/20 08:16:52;;;;;;;29.73;25.52;;;10.30;99.90;;;;;;5005274;28;20053;-66
2021/11/20 08:19:18;;;;;;;31.92;26.45;;;10.30;99.90;;;;;;5031001;28;20118;-66
2021/11/20 08:21:43;;;;;;;31.42;26.48;;;10.30;99.90;;;;;;5024481;28;20375;-66
2021/11/20 08:24:10;;;;;;;32.20;25.08;;;10.30;99.90;;;;;;5026488;28;20100;-66
2021/11/20 08:26:38;;;;;;;32.83;27.23;;;10.30;99.90;;;;;;5002036;28;20049;-66
2021/11/20 08:29:07;;;;;;;32.92;26.33;;;10.30;99.90;;;;;;5029927;28;20099;-66
2021/11/20 08:31:33;;;;;;;30.05;25.92;;;10.30;99.90;;;;;;5005980;28;20057;-66
2021/11/20 08:33:59;;;;;;;32.70;26.38;;;10.40;99.90;;;;;;5009285;28;20559;-66
2021/11/20 08:36:25;;;;;;;31.33;25.17;;;10.40;99.90;;;;;;5032864;28;20477;-66
2021/11/20 08:38:51;;;;;;;30.80;24.42;;;10.40;99.90;;;;;;5023148;28;20044;-66
2021/11/20 08:41:17;;;;;;;30.48;26.15;;;10.40;99.90;;;;;;5030198;28;20033;-66
2021/11/20 08:43:43;;;;;;;29.80;24.70;;;10.40;99.90;;;;;;5023390;28;20038;-66
2021/11/20 08:46:09;;;;;;;29.88;24.92;;;10.40;99.90;;;;;;5011608;28;20386;-66
2021/11/20 08:48:35;;;;;;;29.50;26.23;;;10.50;99.90;;;;;;5021512;28;20053;-66
2021/11/20 08:51:11;;;;;;;28.05;25.05;;;10.50;99.90;;;;;;5026430;28;20034;-66
2021/11/20 08:53:37;;;;;;;28.80;25.25;;;10.50;99.90;;;;;;5021170;28;20045;-66
2021/11/20 08:56:04;;;;;;;32.40;25.63;;;10.50;99.90;;;;;;5031044;28;20508;-66
2021/11/20 08:58:31;;;;;;;29.45;25.20;;;10.50;99.90;;;;;;5024170;28;20517;-66
2021/11/20 09:00:58;;;;;;;28.48;24.67;;;10.50;99.90;;;;;;5012033;28;20042;-66
2021/11/20 09:03:33;;;;;;;28.90;25.80;;;10.50;99.90;;;;;;5004903;28;20045;-66
2021/11/20 09:06:01;;;;;;;28.23;25.27;;;10.50;99.90;;;;;;5026463;28;20049;-66
2021/11/20 09:08:33;;;;;;;27.63;24.73;;;10.50;99.90;;;;;;5003446;28;20405;-66
2021/11/20 09:11:12;;;;;;;27.27;24.38;;;10.50;99.90;;;;;;5009071;28;20346;-66
2021/11/20 09:13:57;;;;;;;27.40;24.50;;;10.50;99.90;;;;;;5021550;28;20038;-66
2021/11/20 09:16:27;;;;;;;29.00;24.77;;;10.50;99.90;;;;;;5012171;28;20077;-66
2021/11/20 09:18:55;;;;;;;27.00;24.20;;;10.50;99.90;;;;;;5022627;28;20450;-66
2021/11/20 09:21:22;;;;;;;27.75;24.83;;;10.60;99.90;;;;;;5028851;28;20042;-66
2021/11/20 09:23:49;;;;;;;28.00;24.27;;;10.60;99.90;;;;;;5024636;28;20049;-66
2021/11/20 09:26:16;;;;;;;27.38;24.58;;;10.60;99.90;;;;;;5030715;28;20134;-66
2021/11/20 09:28:42;;;;;;;28.27;25.27;;;10.60;99.90;;;;;;5018793;28;20040;-66
2021/11/20 09:31:10;;;;;;;29.00;25.95;;;10.50;99.90;;;;;;5011327;28;20050;-66
2021/11/20 09:33:37;;;;;;;28.15;25.10;;;10.50;99.90;;;;;;5028612;28;20105;-66
2021/11/20 09:36:04;;;;;;;27.90;25.08;;;10.50;99.90;;;;;;4988948;28;20425;-66
2021/11/20 09:38:31;;;;;;;29.35;26.45;;;10.50;99.90;;;;;;5021463;28;20036;-66
2021/11/20 09:41:17;;;;;;;29.83;26.73;;;10.50;99.90;;;;;;5025065;28;20037;-66
2021/11/20 09:43:46;;;;;;;29.42;26.35;;;10.50;99.90;;;;;;5027823;28;20041;-66
2021/11/20 09:46:18;;;;;;;29.95;27.00;;;10.50;99.90;;;;;;5002122;28;20088;-66
2021/11/20 09:48:55;;;;;;;29.70;26.77;;;10.50;99.90;;;;;;5004896;28;20096;-66
2021/11/20 09:51:42;;;;;;;31.38;28.08;;;10.50;99.90;;;;;;5001614;28;20038;-66
2021/11/20 09:54:26;;;;;;;32.50;29.13;;;10.40;99.90;;;;;;5008140;28;20025;-66
2021/11/20 09:56:55;;;;;;;32.08;28.75;;;10.50;99.90;;;;;;5004515;28;20041;-66
2021/11/20 09:59:28;;;;;;;31.73;28.58;;;10.50;99.90;;;;;;5009037;28;20064;-67
2021/11/20 10:02:07;;;;;;;32.55;29.45;;;10.50;99.90;;;;;;4999089;28;20038;-67
2021/11/20 10:04:49;;;;;;;32.35;29.05;;;10.50;99.90;;;;;;5006926;28;20045;-66
2021/11/20 10:07:34;;;;;;;33.38;30.08;;;10.50;99.90;;;;;;5003547;28;20385;-67
2021/11/20 10:10:06;;;;;;;35.75;32.03;;;10.50;99.90;;;;;;5009524;28;20072;-67
2021/11/20 10:12:37;;;;;;;35.45;32.03;;;10.50;99.90;;;;;;5004765;28;20045;-66
2021/11/20 10:15:29;;;;;;;35.47;31.98;;;10.50;99.90;;;;;;5008397;28;20057;-66
2021/11/20 10:18:15;;;;;;;35.85;32.08;;;10.50;99.90;;;;;;5009553;28;20033;-67
2021/11/20 10:20:46;;;;;;;35.88;32.28;;;10.50;99.90;;;;;;5003234;28;20049;-66
2021/11/20 10:23:21;;;;;;;37.10;33.30;;;10.50;99.90;;;;;;4985430;28;20042;-66
2021/11/20 10:25:57;;;;;;;35.97;32.28;;;10.50;99.90;;;;;;5000937;28;20042;-66
2021/11/20 10:28:47;;;;;;;35.92;32.22;;;10.50;99.90;;;;;;5000476;28;20053;-66
2021/11/20 10:31:19;;;;;;;36.67;32.67;;;10.50;99.90;;;;;;5000062;28;20050;-66
2021/11/20 10:33:50;;;;;;;37.83;33.97;;;10.50;99.90;;;;;;5007517;28;20113;-66
2021/11/20 10:36:45;;;;;;;36.95;33.13;;;10.50;99.90;;;;;;5001390;28;20069;-66
2021/11/20 10:39:23;;;;;;;37.28;33.47;;;10.50;99.90;;;;;;4996307;28;20042;-66
2021/11/20 10:42:33;;;;;;;37.22;33.20;;;10.50;99.90;;;;;;5000038;28;20104;-67
2021/11/20 10:45:13;;;;;;;38.28;34.35;;;10.50;99.90;;;;;;5012722;28;20053;-67
2021/11/20 10:48:05;;;;;;;37.45;33.58;;;10.50;99.90;;;;;;5019934;28;20463;-67
2021/11/20 10:50:42;;;;;;;39.17;34.50;;;10.50;99.90;;;;;;5028604;28;20053;-66
2021/11/20 10:53:44;;;;;;;38.65;34.15;;;10.50;99.90;;;;;;5019429;28;20409;-67
2021/11/20 10:56:38;;;;;;;37.80;33.90;;;10.50;99.90;;;;;;5021386;28;20038;-67
2021/11/20 10:59:18;;;;;;;39.67;35.53;;;10.50;99.90;;;;;;5019751;28;20048;-67
2021/11/20 11:02:09;;;;;;;40.55;36.35;;;10.50;99.90;;;;;;5026952;28;20104;-67
2021/11/20 11:05:12;;;;;;;41.53;37.13;;;10.50;99.90;;;;;;5007637;28;20040;-66
2021/11/20 11:08:05;;;;;;;41.28;36.90;;;10.50;99.90;;;;;;5020414;28;20184;-66
2021/11/20 11:10:41;;;;;;;41.28;36.13;;;10.50;99.90;;;;;;5025736;28;20506;-66
2021/11/20 11:13:29;;;;;;;43.50;38.60;;;10.50;99.90;;;;;;5020532;28;20462;-67
2021/11/20 11:16:17;;;;;;;43.03;38.10;;;10.50;99.90;;;;;;5024830;28;20037;-66
2021/11/20 11:19:11;;;;;;;45.78;40.83;;;10.60;99.90;;;;;;5019672;28;20494;-66
2021/11/20 11:22:03;;;;;;;45.30;39.72;;;10.50;99.90;;;;;;5006097;28;20084;-66
2021/11/20 11:24:40;;;;;;;46.95;40.55;;;10.50;99.90;;;;;;5000003;28;20103;-66
2021/11/20 11:27:11;;;;;;;44.53;38.25;;;10.50;99.90;;;;;;5027173;28;20052;-66
2021/11/20 11:29:59;;;;;;;48.25;41.08;;;10.50;99.90;;;;;;4999505;28;20612;-66
2021/11/20 11:32:27;;;;;;;45.40;39.70;;;10.50;99.90;;;;;;5024474;28;20046;-66
2021/11/20 11:34:58;;;;;;;46.40;41.10;;;10.50;99.90;;;;;;5020637;28;20045;-66
2021/11/20 11:37:40;;;;;;;49.67;41.58;;;10.50;99.90;;;;;;5025640;28;20548;-66
2021/11/20 11:40:43;;;;;;;46.83;40.22;;;10.40;99.90;;;;;;5019008;28;20041;-66
2021/11/20 11:43:25;;;;;;;48.33;40.92;;;10.40;99.90;;;;;;5021019;28;20041;-66
2021/11/20 11:46:20;;;;;;;50.60;40.47;;;10.40;99.90;;;;;;5019657;28;20148;-66
2021/11/20 11:48:59;;;;;;;48.67;41.07;;;10.40;99.90;;;;;;5002597;28;20046;-66
2021/11/20 11:52:11;;;;;;;49.60;41.55;;;10.40;99.90;;;;;;5028454;28;20127;-66
2021/11/20 11:54:49;;;;;;;53.33;41.72;;;10.40;99.90;;;;;;5021012;28;20056;-67
2021/11/20 11:57:15;;;;;;;54.35;42.83;;;10.30;99.90;;;;;;5023898;28;20038;-67
2021/11/20 11:59:58;;;;;;;53.92;42.92;;;10.30;99.90;;;;;;5019418;28;20029;-67
2021/11/20 12:02:42;;;;;;;52.80;42.20;;;10.30;99.90;;;;;;5008899;28;20045;-66
2021/11/20 12:05:20;;;;;;;52.13;40.97;;;10.30;99.90;;;;;;5019971;28;20041;-66
2021/11/20 12:07:49;;;;;;;51.40;41.05;;;10.30;99.90;;;;;;5003393;28;20437;-66
2021/11/20 12:10:20;;;;;;;59.22;43.65;;;10.30;99.90;;;;;;5015797;28;20048;-67
2021/11/20 12:13:04;;;;;;;55.83;43.00;;;10.30;99.90;;;;;;5023940;28;20077;-67
2021/11/20 12:15:48;;;;;;;58.88;42.78;;;10.30;99.90;;;;;;5018914;28;20454;-66
2021/11/20 12:18:39;;;;;;;56.83;40.97;;;10.20;99.90;;;;;;5008060;28;20073;-66
2021/11/20 12:21:17;;;;;;;57.20;42.88;;;10.30;99.90;;;;;;5000598;28;20045;-67
2021/11/20 12:23:53;;;;;;;56.20;41.42;;;10.20;99.90;;;;;;5007380;28;20164;-66
2021/11/20 12:26:28;;;;;;;59.70;43.15;;;10.30;99.90;;;;;;4998929;28;20394;-66
2021/11/20 12:28:57;;;;;;;59.20;42.97;;;10.30;99.90;;;;;;5009130;28;20505;-66
2021/11/20 12:31:40;;;;;;;55.88;42.85;;;10.30;99.90;;;;;;5023998;28;20542;-67
2021/11/20 12:34:29;;;;;;;56.25;43.67;;;10.30;99.90;;;;;;5026475;28;20040;-66
2021/11/20 12:37:09;;;;;;;62.92;43.95;;;10.30;99.90;;;;;;5018649;28;20049;-66
2021/11/20 12:39:59;;;;;;;59.17;42.20;;;10.30;99.90;;;;;;5027950;28;20061;-66
2021/11/20 12:43:02;;;;;;;60.53;45.22;;;10.30;99.90;;;;;;5008366;28;20448;-66
2021/11/20 12:46:05;;;;;;;61.10;45.05;;;10.30;99.90;;;;;;5030920;28;20085;-66
2021/11/20 12:48:42;;;;;;;57.65;43.95;;;10.30;99.90;;;;;;5026667;28;20597;-66
2021/11/20 12:51:10;;;;;;;65.68;45.17;;;10.30;99.90;;;;;;5028166;28;20049;-66